地図

経路データ

SID SEASON NUMBER BASIN SUBBASIN NAME ISO_TIME NATURE LAT LON WMO_WIND WMO_PRES WMO_AGENCY TRACK_TYPE DIST2LAND LANDFALL IFLAG USA_AGENCY USA_ATCF_ID USA_LAT USA_LON USA_RECORD USA_STATUS USA_WIND USA_PRES USA_SSHS USA_R34_NE USA_R34_SE USA_R34_SW USA_R34_NW USA_R50_NE USA_R50_SE USA_R50_SW USA_R50_NW USA_R64_NE USA_R64_SE USA_R64_SW USA_R64_NW USA_POCI USA_ROCI USA_RMW USA_EYE TOKYO_LAT TOKYO_LON TOKYO_GRADE TOKYO_WIND TOKYO_PRES TOKYO_R50_DIR TOKYO_R50_LONG TOKYO_R50_SHORT TOKYO_R30_DIR TOKYO_R30_LONG TOKYO_R30_SHORT TOKYO_LAND CMA_LAT CMA_LON CMA_CAT CMA_WIND CMA_PRES HKO_LAT HKO_LON HKO_CAT HKO_WIND HKO_PRES NEWDELHI_LAT NEWDELHI_LON NEWDELHI_GRADE NEWDELHI_WIND NEWDELHI_PRES NEWDELHI_CI NEWDELHI_DP NEWDELHI_POCI REUNION_LAT REUNION_LON REUNION_TYPE REUNION_WIND REUNION_PRES REUNION_TNUM REUNION_CI REUNION_RMW REUNION_R34_NE REUNION_R34_SE REUNION_R34_SW REUNION_R34_NW REUNION_R50_NE REUNION_R50_SE REUNION_R50_SW REUNION_R50_NW REUNION_R64_NE REUNION_R64_SE REUNION_R64_SW REUNION_R64_NW BOM_LAT BOM_LON BOM_TYPE BOM_WIND BOM_PRES BOM_TNUM BOM_CI BOM_RMW BOM_R34_NE BOM_R34_SE BOM_R34_SW BOM_R34_NW BOM_R50_NE BOM_R50_SE BOM_R50_SW BOM_R50_NW BOM_R64_NE BOM_R64_SE BOM_R64_SW BOM_R64_NW BOM_ROCI BOM_POCI BOM_EYE BOM_POS_METHOD BOM_PRES_METHOD NADI_LAT NADI_LON NADI_CAT NADI_WIND NADI_PRES WELLINGTON_LAT WELLINGTON_LON WELLINGTON_WIND WELLINGTON_PRES DS824_LAT DS824_LON DS824_STAGE DS824_WIND DS824_PRES TD9636_LAT TD9636_LON TD9636_STAGE TD9636_WIND TD9636_PRES TD9635_LAT TD9635_LON TD9635_WIND TD9635_PRES TD9635_ROCI NEUMANN_LAT NEUMANN_LON NEUMANN_CLASS NEUMANN_WIND NEUMANN_PRES MLC_LAT MLC_LON MLC_CLASS MLC_WIND MLC_PRES USA_GUST BOM_GUST BOM_GUST_PER REUNION_GUST REUNION_GUST_PER USA_SEAHGT USA_SEARAD_NE USA_SEARAD_SE USA_SEARAD_SW USA_SEARAD_NW STORM_SPEED STORM_DIR
1975288N21268 1975 110 NA GM NOT_NAMED 1975-10-14 12:00:00 TS 21.0000 -92.0000 20 hurdat_atl main 165 165 O_____________ hurdat_atl AL181975 21.0000 -92.0000 TD 20 -1 8 322
1975288N21268 1975 110 NA GM NOT_NAMED 1975-10-14 15:00:00 TS 21.3001 -92.2498 main 194 194 P_____________ AL181975 21.3001 -92.2498 TD 22 -1 8 322
1975288N21268 1975 110 NA GM NOT_NAMED 1975-10-14 18:00:00 TS 21.6000 -92.5000 25 hurdat_atl main 234 234 O_____________ hurdat_atl AL181975 21.6000 -92.5000 TD 25 -1 8 322
1975288N21268 1975 110 NA GM NOT_NAMED 1975-10-14 21:00:00 TS 21.9000 -92.7501 main 273 273 P_____________ AL181975 21.9000 -92.7501 TD 25 -1 8 322
1975288N21268 1975 110 NA GM NOT_NAMED 1975-10-15 00:00:00 TS 22.2000 -93.0000 25 hurdat_atl main 304 304 O_____________ hurdat_atl AL181975 22.2000 -93.0000 TD 25 -1 8 322
1975288N21268 1975 110 NA GM NOT_NAMED 1975-10-15 03:00:00 TS 22.4925 -93.2502 main 346 346 P_____________ AL181975 22.4925 -93.2502 TD 27 -1 8 322
1975288N21268 1975 110 NA GM NOT_NAMED 1975-10-15 06:00:00 TS 22.8000 -93.5000 30 hurdat_atl main 380 380 O_____________ hurdat_atl AL181975 22.8000 -93.5000 TD 30 -1 8 321
1975288N21268 1975 110 NA GM NOT_NAMED 1975-10-15 09:00:00 TS 23.1276 -93.8022 main 396 387 P_____________ AL181975 23.1276 -93.8022 TD 30 -1 8 327
1975288N21268 1975 110 NA GM NOT_NAMED 1975-10-15 12:00:00 TS 23.5000 -94.0000 30 hurdat_atl main 387 373 O_____________ hurdat_atl AL181975 23.5000 -94.0000 TD 30 -1 8 350
1975288N21268 1975 110 NA GM NOT_NAMED 1975-10-15 15:00:00 TS 23.9350 -93.9603 main 373 367 P_____________ AL181975 23.9350 -93.9603 TD 30 -1 9 11
1975288N21268 1975 110 NA GM NOT_NAMED 1975-10-15 18:00:00 TS 24.4000 -93.8000 30 hurdat_atl main 367 359 O_____________ hurdat_atl AL181975 24.4000 -93.8000 TD 30 -1 10 17
1975288N21268 1975 110 NA GM NOT_NAMED 1975-10-15 21:00:00 TS 24.8500 -93.6575 main 360 360 P_____________ AL181975 24.8500 -93.6575 TD 30 -1 9 17
1975288N21268 1975 110 NA GM NOT_NAMED 1975-10-16 00:00:00 TS 25.3000 -93.5000 30 hurdat_atl main 368 366 O_____________ hurdat_atl AL181975 25.3000 -93.5000 TD 30 -1 10 17
1975288N21268 1975 110 NA GM NOT_NAMED 1975-10-16 03:00:00 TS 25.7575 -93.3425 main 380 369 P_____________ AL181975 25.7575 -93.3425 TD 30 -1 9 17
1975288N21268 1975 110 NA GM NOT_NAMED 1975-10-16 06:00:00 TS 26.2000 -93.2000 30 hurdat_atl main 369 333 O_____________ hurdat_atl AL181975 26.2000 -93.2000 TD 30 -1 9 13
1975288N21268 1975 110 NA GM NOT_NAMED 1975-10-16 09:00:00 TS 26.6074 -93.1220 main 333 287 P_____________ AL181975 26.6074 -93.1220 TD 30 -1 8 13
1975288N21268 1975 110 NA GM NOT_NAMED 1975-10-16 12:00:00 TS 27.0000 -93.0000 30 hurdat_atl main 287 239 O_____________ hurdat_atl AL181975 27.0000 -93.0000 TD 30 -1 9 22
1975288N21268 1975 110 NA GM NOT_NAMED 1975-10-16 15:00:00 TS 27.4074 -92.7524 main 239 190 P_____________ AL181975 27.4074 -92.7524 TD 30 -1 10 34
1975288N21268 1975 110 NA GM NOT_NAMED 1975-10-16 18:00:00 TS 27.8000 -92.4000 30 hurdat_atl main 190 150 O_____________ hurdat_atl AL181975 27.8000 -92.4000 TD 30 -1 10 43
1975288N21268 1975 110 NA GM NOT_NAMED 1975-10-16 21:00:00 TS 28.1576 -91.9649 main 141 87 P_____________ AL181975 28.1576 -91.9649 TD 27 -1 11 49
1975288N21268 1975 110 NA GM NOT_NAMED 1975-10-17 00:00:00 TS 28.5000 -91.5000 25 hurdat_atl main 87 38 O_____________ hurdat_atl AL181975 28.5000 -91.5000 TD 25 -1 10 48
1975288N21268 1975 110 NA GM NOT_NAMED 1975-10-17 03:00:00 TS 28.8424 -91.0847 main 38 0 P_____________ AL181975 28.8424 -91.0847 TD 25 -1 10 45
1975288N21268 1975 110 NA NA NOT_NAMED 1975-10-17 06:00:00 TS 29.2000 -90.7000 25 hurdat_atl main 0 0 O_____________ hurdat_atl AL181975 29.2000 -90.7000 TD 25 -1 10 41
1975288N21268 1975 110 NA NA NOT_NAMED 1975-10-17 09:00:00 TS 29.5902 -90.3431 main 0 0 P_____________ AL181975 29.5902 -90.3431 TD -1 10 37
1975288N21268 1975 110 NA NA NOT_NAMED 1975-10-17 12:00:00 TS 30.0000 -90.0000 hurdat_atl main 0 O_____________ hurdat_atl AL181975 30.0000 -90.0000 TD -1 10 36

IBTrACS Databaseについて

本データベースは、米国NOAAが公開する1842年以降の世界の熱帯低気圧のベストトラックデータアーカイブInternational Best Track Archive for Climate Stewardship (IBTrACS)を、ウェブで閲覧しやすい形式に変換したものです。

最終更新日:2021-11-26